Barcroft Research Lab Weather observations

Data are for 10 minute period ending at time listed.
 Day   Time   Solar   Ave.   Ave.  Ave.  Vector  Std.   Max.    Baro.    
  of    of     Rad.   Air    Rel.  Wind   Wind   Dev.   Wind   Press.    
Year   Day            Temp.  Hum.  Speed  Dir.   Dir.   Gust            
2015   (PST)  Kw/m2    F      %     mph   deg.   deg.    mph     mb.    
------------------------------------------------------------------------
  61    8:10     877   11.2    82   14.0   302    -99    20.0   627.80  
  61    8:20     930   10.8    83   14.8   306    -99    19.3   627.80  
  61    8:30    1014   11.9    82   14.4   305    -99    19.3   627.80  
  61    8:40     905   11.9    82   14.7   309    -99    18.3   627.80  
  61    8:50     835   11.7    82   14.7   307    -99    17.9   627.80  
  61    9:00     970   11.7    82   13.6   307    -99    17.4   627.80  
  61    9:10     909   12.5    81   12.4   306    -99    18.1   627.90  
  61    9:20     809   11.5    81   11.7   301    -99    17.8   627.90  
  61    9:30     858   11.2    83   11.3   304    -99    16.1   627.90  
  61    9:40     958   12.1    81   11.4   290    -99    17.3   627.90  
  61    9:50     721   10.7    82   10.8   286    -99    15.6   627.90  
  61   10:00     951   10.8    84   10.8   295    -99    16.1   627.90  
  61   10:10     977   12.3    82    9.7   289    -99    17.5   628.20  
  61   10:20    1075   11.6    79   12.4   282    -99    19.1   628.20  
  61   10:30     930   10.2    81   10.4   273    -99    15.9   628.20  
  61   10:40     724   10.1    82    9.4   273    -99    16.6   628.20  
  61   10:50     355    8.8    86   10.5   283    -99    17.0   628.20  
  61   11:00     429    8.5    89   12.7   292    -99    21.3   628.20  
  61   11:10     647    9.4    87   12.2   284    -99    14.9   628.20  
  61   11:20     670    9.7    86   10.0   285    -99    16.0   628.20  
  61   11:30     652   11.2    84    9.1   280    -99    14.5   628.20  
  61   11:40     493    9.9    85   10.5   286    -99    16.6   628.20  
  61   11:50     281    8.7    87   10.0   272    -99    16.2   628.20  
  61   12:00     383    8.3    88   10.9   270    -99    18.3   628.20  
  61   12:10     391    8.6    89   10.9   277    -99    15.1   628.30  
  61   12:20     504    9.5    88    9.4   273    -99    18.7   628.30  
  61   12:30     454   10.3    88    9.6   289    -99    16.5   628.30  
  61   12:40     368   10.7    89    9.3   278    -99    15.6   628.30  
  61   12:50     276   10.0    89   10.6   287    -99    17.5   628.30  
  61   13:00     287    9.4    89   11.5   288    -99    18.7   628.30  
  61   13:10     348    9.5    89   11.2   276    -99    15.1   628.90  
  61   13:20     283    9.2    89    9.8   279    -99    16.1   628.90  
  61   13:30     239    9.1    90    9.6   284    -99    14.4   628.90  
  61   13:40     161    9.0    89   10.1   287    -99    14.7   628.90  
  61   13:50     178    8.7    90   10.1   275    -99    14.1   628.90  
  61   14:00     233    8.5    90   10.6   268    -99    17.4   628.90  
  61   14:10     143    8.5    91   10.9   276    -99    17.4   629.00  
  61   14:20     133    8.6    91   11.9   287    -99    16.1   629.00  
  61   14:30      92    8.7    92   10.0   287    -99    14.3   629.00  
  61   14:40     107    8.9    92   10.9   296    -99    17.5   629.00  
  61   14:50      62    8.9    91    9.8   302    -99    14.0   629.00  
  61   15:00      41    8.5    92    8.8   304    -99    12.6   629.00  
  61   15:10      34    8.1    92    9.2   303    -99    12.0   629.60  
  61   15:20      27    7.8    92    9.5   308    -99    13.9   629.60  
  61   15:30      12    7.6    93    9.5   297    -99    16.1   629.60  
  61   15:40       7    7.8    93    4.9   291    -99     9.4   629.60  
  61   15:50       4    7.8    93    3.8   321    -99     6.2   629.60  
  61   16:00       1    7.4    92    5.3   324    -99     8.3   629.60  
  61   16:10       0    6.5    91    5.6   318    -99     7.0   630.10  
  61   16:20       0    4.7    89    7.4   317    -99     8.6   630.10  
  61   16:30       0    2.8    88    7.3   318    -99     8.6   630.10  
  61   16:40       0    1.5    89    6.8   320    -99     8.4   630.10  
  61   16:50       0    1.2    91    4.7   319    -99     6.6   630.10  
  61   17:00       0    2.7    94    6.3   307    -99     8.6   630.10  
  61   17:10       0    4.9    95    8.0   307    -99    10.2   630.50  
  61   17:20       0    6.3    94    7.8   304    -99    11.0   630.50  
  61   17:30       0    6.9    94    6.0   303    -99     8.7   630.50  
  61   17:40       0    7.2    93    3.2   278    -99     6.4   630.50  
  61   17:50       0    7.3    93    1.7   316    -99     4.8   630.50  
  61   18:00       0    7.4    93    2.1   335    -99     4.5   630.50  
  61   18:10       0    7.4    93    1.9   330    -99     5.3   631.20  
  61   18:20       0    7.4    93    2.7   294    -99     4.6   631.20  
  61   18:30       0    7.4    93    3.2   286    -99     6.0   631.20  
  61   18:40       0    7.4    93    5.8   293    -99     8.8   631.20  
  61   18:50       0    7.3    93    4.3   308    -99     8.2   631.20  
  61   19:00       0    7.1    93    3.0   311    -99     4.4   631.20  
  61   19:10       0    7.0    93    3.8   317    -99     7.4   631.70  
  61   19:20       0    6.6    92    4.2   329    -99     7.8   631.70  
  61   19:30       0    4.8    88    4.7   321    -99     6.9   631.70  
  61   19:40       0    1.9    88    7.9   309    -99    10.0   631.70  
  61   19:50       0    1.1    90    8.7   311    -99     9.8   631.70  
  61   20:00       0    1.2    90    6.8   316    -99     7.9   631.70  
  61   20:10       0    1.3    90    5.5   317    -99     7.6   631.90  
  61   20:20       0    0.9    90    6.0   278    -99     8.8   631.90  
  61   20:30       0    1.5    92    4.5   284    -99     7.2   631.90  
  61   20:40       0    2.6    92    4.8   274    -99     6.9   631.90  
  61   20:50       0    3.2    92    6.4   256    -99     7.5   631.90  
  61   21:00       0    3.6    91    7.1   267    -99     8.6   631.90  
  61   21:10       0    3.3    91    7.7   272    -99     9.3   632.00  
  61   21:20       0    2.6    90    8.4   284    -99    10.1   632.00  
  61   21:30       0    1.5    89    8.7   289    -99    10.3   632.00  
  61   21:40       0    1.3    90    7.3   307    -99     9.2   632.00  
  61   21:50       0    1.2    90    7.6   306    -99     9.2   632.00  
  61   22:00       0    0.8    90    8.9   300    -99    11.0   632.00  
  61   22:10       0    0.9    91    9.2   302    -99    10.4   632.00  
  61   22:20       0    0.8    90    9.1   305    -99    10.6   632.00  
  61   22:30       0    0.3    90    9.3   306    -99    11.0   632.00  
  61   22:40       0    0.3    91    8.8   311    -99    10.3   632.00  
  61   22:50       0    1.1    91    8.5   305    -99     9.9   632.00  
  61   23:00       0    0.7    90    6.9   308    -99     8.0   632.00  
  61   23:10       0   -0.1    89    6.5   312    -99     7.1   632.00  
  61   23:20       0   -1.0    89    5.7   305    -99     6.4   632.00  
  61   23:30       0   -1.4    89    5.1   297    -99     5.8   632.00  
  61   23:40       0   -0.8    91    5.5   292    -99     6.3   632.00  
  61   23:50       0   -0.1    90    6.3   295    -99     7.1   632.00  
  62    0:00       0   -0.1    90    6.5   290    -99     7.3   632.00  
  62    0:10       0   -0.1    90    6.5   290    -99     7.2   631.80  
  62    0:20       0    0.1    90    6.7   298    -99     7.8   631.80  
  62    0:30       0    0.8    91    4.4   311    -99     6.9   631.80  
  62    0:40       0    2.2    92    3.7   308    -99     5.4   631.80  
  62    0:50       0    3.5    92    3.9   312    -99     5.4   631.80  
  62    1:00       0    3.9    92    3.8   303    -99     5.3   631.80  
  62    1:10       0    2.3    88    5.1   295    -99     5.8   631.60  
  62    1:20       0    0.9    90    4.5   293    -99     5.2   631.60  
  62    1:30       0    0.4    88    5.6   290    -99     6.8   631.60  
  62    1:40       0   -0.5    88    6.4   291    -99     6.9   631.60  
  62    1:50       0   -1.3    88    6.4   288    -99     7.1   631.60  
  62    2:00       0   -1.3    89    6.2   297    -99     7.2   631.60  
  62    2:10       0    0.1    92    8.8   298    -99    12.6   631.40  
  62    2:20       0    1.4    92   10.3   302    -99    12.5   631.40  
  62    2:30       0    2.2    92   11.1   301    -99    15.0   631.40  
  62    2:40       0    2.4    91   10.9   296    -99    13.7   631.40  
  62    2:50       0    2.0    90   11.9   300    -99    15.1   631.40  
  62    3:00       0    2.2    91   12.7   302    -99    15.9   631.40  
  62    3:10       0    2.4    91   12.2   300    -99    15.4   631.30  
  62    3:20       0    2.1    90   12.5   300    -99    14.8   631.30  
  62    3:30       0    1.8    90   12.8   299    -99    17.0   631.30  
  62    3:40       0    1.6    90   12.5   293    -99    16.0   631.30  
  62    3:50       0    0.8    89   11.9   294    -99    15.3   631.30  
  62    4:00       0    1.1    91   14.9   301    -99    20.0   631.30  
  62    4:10       1    1.7    91   13.9   306    -99    19.4   631.00  
  62    4:20       7    1.7    90   12.9   305    -99    18.7   631.00  
  62    4:30      20    1.9    90   13.6   309    -99    17.6   631.00  
  62    4:40      34    2.1    90   11.7   310    -99    15.9   631.00  
  62    4:50      51    2.5    89   10.7   311    -99    13.2   631.00  
  62    5:00      68    2.7    87    8.3   318    -99    13.2   631.00  
  62    5:10      86    2.4    88    8.3   312    -99    11.6   631.30  
  62    5:20     103    3.8    89    9.1   307    -99    12.3   631.30  
  62    5:30     122    4.8    88   11.4   304    -99    14.5   631.30  
  62    5:40     139    5.4    87   11.1   310    -99    15.9   631.30  
  62    5:50     157    5.4    86   13.0   314    -99    17.8   631.30  
  62    6:00     176    5.3    86   13.0   314    -99    19.1   631.30  
  62    6:10     197    5.8    86   15.2   311    -99    18.9   631.80  
  62    6:20     230    6.5    86   14.9   312    -99    19.0   631.80  
  62    6:30     268    7.2    86   14.9   311    -99    18.6   631.80  
  62    6:40     305    8.1    85   13.8   308    -99    18.6   631.80  
  62    6:50     314    8.7    84   11.7   316    -99    14.5   631.80  
  62    7:00     334    8.9    83   10.7   315    -99    16.7   631.80  
  62    7:10     355    9.4    84    9.7   316    -99    13.0   632.20  
  62    7:20     412    9.8    82    8.9   321    -99    12.3   632.20  
  62    7:30     631   10.4    84    6.8   319    -99    11.5   632.20  
  62    7:40     653   11.5    82    7.7   320    -99    11.7   632.20  
  62    7:50     674   11.6    82    8.4   322    -99    12.1   632.20  
  62    8:00     693   11.6    81    8.6   321    -99    11.5   632.20  

Return to Barcroft Research Lab graphs page.


Western Regional Climate Center,wrcc@dri.edu